Terminal Aerodrome Forecast
Issued by NWS Wilmington, OH

Home | Current Version | Previous Version | Text Only | Print | Product List | Glossary On
Versions: 1 2 3 4 5 6 7 8 9 10 11 12 13 14 15
000
FTUS41 KILN 191138
TAFDAY
TAF
KDAY 191138Z 1912/2012 16005KT P6SM VCTS OVC060CB
      TEMPO 1913/1916 3SM -TSRA BR OVC040CB
     FM191600 17006KT P6SM VCTS OVC050CB
     FM191800 19007KT P6SM VCSH BKN060
     FM200200 18004KT P6SM BKN090
     FM200700 17004KT 5SM BR BKN080=

USA.gov is the U.S. government's official web portal to all federal, state and local government web resources and services.